createdAt,value
2022-11-21T00:01:29.523Z,0.70
2022-11-21T00:04:00.192Z,0.70
2022-11-21T00:06:28.124Z,0.43
2022-11-21T00:08:56.717Z,0.55
2022-11-21T00:11:25.520Z,0.60
2022-11-21T00:13:53.605Z,0.82
2022-11-21T00:16:21.814Z,0.85
2022-11-21T00:18:49.946Z,0.68
2022-11-21T00:21:20.734Z,0.50
2022-11-21T00:23:48.777Z,0.70
2022-11-21T00:26:17.662Z,0.60
2022-11-21T00:28:45.565Z,1.02
2022-11-21T00:31:25.197Z,0.70
2022-11-21T00:33:53.074Z,0.95
2022-11-21T00:36:20.799Z,0.70
2022-11-21T00:38:48.941Z,0.80
2022-11-21T00:41:17.670Z,0.70
2022-11-21T00:43:45.402Z,0.55
2022-11-21T00:46:14.046Z,0.60
2022-11-21T00:48:42.552Z,0.80
2022-11-21T00:51:10.926Z,0.70
2022-11-21T00:53:38.778Z,0.85
2022-11-21T00:56:06.899Z,0.65
2022-11-21T00:58:35.366Z,0.70
2022-11-21T01:01:10.880Z,0.70
2022-11-21T01:03:40.949Z,0.80
2022-11-21T01:06:15.100Z,0.95
2022-11-21T01:08:46.385Z,0.68
2022-11-21T01:11:18.825Z,0.73
2022-11-21T01:13:48.669Z,0.80
2022-11-21T01:16:20.551Z,0.85
2022-11-21T01:18:49.302Z,0.90
2022-11-21T01:21:27.266Z,0.80
2022-11-21T01:23:56.271Z,0.88
2022-11-21T01:26:27.244Z,0.80
2022-11-21T01:28:55.073Z,0.85
2022-11-21T01:31:29.788Z,0.80
2022-11-21T01:33:59.882Z,0.80
2022-11-21T01:36:34.407Z,0.65
2022-11-21T01:39:05.915Z,0.82
2022-11-21T01:44:23.827Z,0.52
2022-11-21T01:46:53.493Z,0.50
2022-11-21T01:49:25.826Z,0.57
2022-11-21T01:52:06.046Z,0.80
2022-11-21T01:54:49.284Z,0.60
2022-11-21T01:57:34.943Z,0.80
2022-11-21T02:00:08.449Z,0.50
2022-11-21T02:02:51.134Z,0.70
2022-11-21T02:05:26.198Z,0.70
2022-11-21T02:07:58.742Z,0.60
2022-11-21T02:10:28.320Z,0.90
2022-11-21T02:12:58.922Z,0.75
2022-11-21T02:15:30.182Z,0.68
2022-11-21T02:17:58.940Z,0.80
2022-11-21T02:20:29.588Z,0.90
2022-11-21T02:23:18.613Z,0.68
2022-11-21T02:25:46.951Z,0.90
2022-11-21T02:28:16.925Z,0.88
2022-11-21T02:30:44.754Z,0.60
2022-11-21T02:33:14.932Z,0.77
2022-11-21T02:35:43.812Z,0.70
2022-11-21T02:38:27.611Z,0.60
2022-11-21T02:41:13.000Z,0.70
2022-11-21T02:43:52.550Z,0.47
2022-11-21T02:46:20.715Z,0.40
2022-11-21T02:48:49.255Z,0.52
2022-11-21T02:51:18.005Z,0.70
2022-11-21T02:53:46.644Z,0.52
2022-11-21T02:56:15.874Z,0.63
2022-11-21T02:58:44.485Z,0.47
2022-11-21T03:01:12.827Z,0.50
2022-11-21T03:03:41.946Z,0.50
2022-11-21T03:06:10.917Z,0.40
2022-11-21T03:08:38.814Z,0.50
2022-11-21T03:11:06.742Z,0.45
2022-11-21T03:13:35.054Z,0.50
2022-11-21T03:16:02.938Z,0.50
2022-11-21T03:18:30.829Z,0.40
2022-11-21T03:20:58.960Z,0.40
2022-11-21T03:23:26.998Z,0.38
2022-11-21T03:25:55.004Z,0.40
2022-11-21T03:28:22.699Z,0.35
2022-11-21T03:30:50.729Z,0.35
2022-11-21T03:33:18.497Z,0.30
2022-11-21T03:35:48.156Z,0.35
2022-11-21T03:38:16.160Z,0.40
2022-11-21T03:40:43.886Z,0.40
2022-11-21T03:43:11.984Z,0.45
2022-11-21T03:45:40.516Z,0.40
2022-11-21T03:48:09.923Z,0.45
2022-11-21T03:50:38.011Z,0.40
2022-11-21T03:53:07.043Z,0.32
2022-11-21T03:55:35.630Z,0.63
2022-11-21T03:58:03.499Z,0.52
2022-11-21T04:00:31.696Z,0.40
2022-11-21T04:03:00.174Z,0.43
2022-11-21T04:05:28.983Z,0.40
2022-11-21T04:07:57.270Z,0.68
2022-11-21T04:10:25.689Z,0.65
2022-11-21T04:12:53.415Z,1.05
2022-11-21T04:15:22.165Z,0.75
2022-11-21T04:17:51.363Z,0.60
2022-11-21T04:20:19.285Z,0.70
2022-11-21T04:22:47.427Z,0.50
2022-11-21T04:25:16.712Z,0.50
2022-11-21T04:27:44.630Z,0.82
2022-11-21T04:30:34.497Z,0.68
2022-11-21T04:33:25.438Z,0.60
2022-11-21T04:36:01.029Z,0.50
2022-11-21T04:38:29.166Z,0.65
2022-11-21T04:40:57.223Z,0.57
2022-11-21T04:43:25.112Z,0.50
2022-11-21T04:45:53.043Z,0.70
2022-11-21T04:48:20.975Z,0.60
2022-11-21T04:50:50.110Z,0.90
2022-11-21T04:53:18.527Z,0.60
2022-11-21T04:55:47.767Z,0.60
2022-11-21T04:58:17.096Z,0.60
2022-11-21T05:00:45.274Z,0.80
2022-11-21T05:03:13.442Z,0.70
2022-11-21T05:05:42.096Z,0.68
2022-11-21T05:08:10.327Z,0.80
2022-11-21T05:10:58.470Z,0.65
2022-11-21T05:13:26.449Z,0.70
2022-11-21T05:15:58.473Z,0.70
2022-11-21T05:18:27.789Z,0.90
2022-11-21T05:20:56.972Z,0.90
2022-11-21T05:23:25.478Z,0.90
2022-11-21T05:25:53.519Z,0.77
2022-11-21T05:28:21.669Z,0.93
2022-11-21T05:30:49.656Z,0.85
2022-11-21T05:33:17.972Z,1.05
2022-11-21T05:35:46.155Z,1.02
2022-11-21T05:38:14.860Z,0.93
2022-11-21T05:40:42.725Z,0.70
2022-11-21T05:43:30.859Z,0.90
2022-11-21T05:45:59.258Z,0.93
2022-11-21T05:48:27.548Z,1.05
2022-11-21T05:50:55.376Z,1.10
2022-11-21T05:53:24.582Z,0.90
2022-11-21T05:55:52.393Z,0.80
2022-11-21T05:58:20.600Z,1.00
2022-11-21T06:00:48.572Z,0.80
2022-11-21T06:03:28.481Z,0.90
2022-11-21T06:06:19.642Z,0.90
2022-11-21T06:08:50.966Z,0.88
2022-11-21T06:11:18.940Z,0.90
2022-11-21T06:13:46.793Z,1.00
2022-11-21T06:16:18.267Z,1.02
2022-11-21T06:18:58.668Z,0.90
2022-11-21T06:21:30.811Z,0.95
2022-11-21T06:23:59.053Z,0.80
2022-11-21T06:26:28.424Z,1.20
2022-11-21T06:28:56.802Z,0.93
2022-11-21T06:31:27.838Z,0.80
2022-11-21T06:33:58.906Z,1.30
2022-11-21T06:36:27.357Z,1.00
2022-11-21T06:38:56.677Z,1.05
2022-11-21T06:41:31.183Z,1.10
2022-11-21T06:44:02.432Z,1.30
2022-11-21T06:46:30.253Z,1.55
2022-11-21T06:48:58.422Z,1.20
2022-11-21T06:51:28.031Z,0.85
2022-11-21T06:53:59.189Z,1.10
2022-11-21T06:56:31.160Z,1.20
2022-11-21T06:59:00.095Z,1.02
2022-11-21T07:01:27.948Z,1.00
2022-11-21T07:03:56.033Z,1.00
2022-11-21T07:06:24.976Z,1.10
2022-11-21T07:11:43.053Z,1.23
2022-11-21T07:14:12.115Z,1.50
2022-11-21T07:16:42.056Z,1.10
2022-11-21T07:19:10.225Z,1.30
2022-11-21T07:21:38.197Z,1.45
2022-11-21T07:24:07.601Z,1.30
2022-11-21T07:26:36.485Z,1.15
2022-11-21T07:29:04.906Z,1.13
2022-11-21T07:31:33.956Z,1.20
2022-11-21T07:34:02.384Z,1.40
2022-11-21T07:36:33.214Z,1.35
2022-11-21T07:39:03.263Z,1.15
2022-11-21T07:41:32.830Z,1.30
2022-11-21T07:44:02.806Z,0.90
2022-11-21T07:46:30.876Z,1.73
2022-11-21T07:49:03.048Z,1.55
2022-11-21T07:51:31.561Z,1.25
2022-11-21T07:53:59.746Z,1.40
2022-11-21T07:56:29.226Z,1.13
2022-11-21T07:58:57.290Z,1.20
2022-11-21T08:01:25.436Z,1.40
2022-11-21T08:03:53.313Z,1.10
2022-11-21T08:06:21.319Z,1.15
2022-11-21T08:08:54.512Z,1.02
2022-11-21T08:11:22.543Z,1.38
2022-11-21T08:13:51.015Z,1.50
2022-11-21T08:16:19.505Z,1.38
2022-11-21T08:18:47.660Z,1.25
2022-11-21T08:21:19.783Z,1.08
2022-11-21T08:23:48.991Z,1.10
2022-11-21T08:26:17.806Z,1.20
2022-11-21T08:28:46.509Z,1.00
2022-11-21T08:31:14.756Z,1.45
2022-11-21T08:33:43.173Z,1.00
2022-11-21T08:36:11.233Z,1.35
2022-11-21T08:38:40.027Z,1.15
2022-11-21T08:41:26.642Z,1.30
2022-11-21T08:43:54.895Z,1.48
2022-11-21T08:46:27.288Z,0.93
2022-11-21T08:48:55.921Z,1.10
2022-11-21T08:51:24.936Z,1.35
2022-11-21T08:53:52.982Z,1.20
2022-11-21T08:56:21.103Z,1.17
2022-11-21T08:58:49.962Z,1.45
2022-11-21T09:01:18.184Z,0.90
2022-11-21T09:03:46.200Z,1.17
2022-11-21T09:06:14.532Z,1.00
2022-11-21T09:08:42.384Z,1.23
2022-11-21T09:11:11.151Z,1.40
2022-11-21T09:13:39.451Z,1.38
2022-11-21T09:16:26.536Z,1.63
2022-11-21T09:18:54.623Z,1.65
2022-11-21T09:21:22.866Z,1.50
2022-11-21T09:23:50.774Z,1.27
2022-11-21T09:26:18.627Z,1.35
2022-11-21T09:28:47.034Z,1.33
2022-11-21T09:31:16.407Z,1.40
2022-11-21T09:33:44.672Z,1.58
2022-11-21T09:36:14.317Z,1.38
2022-11-21T09:38:43.278Z,1.25
2022-11-21T09:41:53.199Z,1.23
2022-11-21T09:44:58.712Z,1.30
2022-11-21T09:47:52.152Z,1.40
2022-11-21T09:50:34.953Z,1.50
2022-11-21T09:53:27.752Z,1.30
2022-11-21T09:56:06.366Z,1.48
2022-11-21T09:59:08.636Z,1.23
2022-11-21T10:01:37.210Z,1.20
2022-11-21T10:04:06.602Z,1.60
2022-11-21T10:07:13.052Z,1.05
2022-11-21T10:09:59.912Z,1.35
2022-11-21T10:12:51.698Z,1.63
2022-11-21T10:15:40.581Z,1.35
2022-11-21T10:18:32.385Z,0.95
2022-11-21T10:21:51.374Z,1.08
2022-11-21T10:24:48.343Z,1.30
2022-11-21T10:27:27.950Z,1.10
2022-11-21T10:30:21.950Z,1.42
2022-11-21T10:33:04.427Z,1.60
2022-11-21T10:35:44.962Z,1.20
2022-11-21T10:38:27.290Z,1.38
2022-11-21T10:41:03.592Z,1.00
2022-11-21T10:44:15.308Z,1.02
2022-11-21T10:47:01.793Z,0.98
2022-11-21T10:49:34.397Z,0.80
2022-11-21T10:52:16.438Z,1.20
2022-11-21T10:55:09.087Z,1.33
2022-11-21T10:57:49.988Z,1.13
2022-11-21T11:00:28.438Z,0.93
2022-11-21T11:03:16.781Z,1.10
2022-11-21T11:05:58.146Z,1.10
2022-11-21T11:08:29.103Z,1.50
2022-11-21T11:11:14.977Z,1.13
2022-11-21T11:14:07.365Z,1.00
2022-11-21T11:16:41.629Z,1.10
2022-11-21T11:19:16.056Z,1.98
2022-11-21T11:21:46.333Z,1.40
2022-11-21T11:24:14.447Z,1.30
2022-11-21T11:26:48.935Z,1.20
2022-11-21T11:29:18.359Z,1.20
2022-11-21T11:32:31.825Z,1.40
2022-11-21T11:35:06.153Z,1.20
2022-11-21T11:37:43.857Z,1.23
2022-11-21T11:40:40.237Z,1.30
2022-11-21T11:43:50.419Z,1.02
2022-11-21T11:47:14.608Z,1.35
2022-11-21T11:50:08.046Z,1.52
2022-11-21T11:52:56.293Z,1.30
2022-11-21T11:55:54.850Z,1.30
2022-11-21T11:58:45.160Z,1.55
2022-11-21T12:01:43.146Z,1.33
2022-11-21T12:04:18.676Z,1.45
2022-11-21T12:10:14.079Z,1.30
2022-11-21T12:13:16.461Z,1.50
2022-11-21T12:15:52.621Z,1.40
2022-11-21T12:18:21.506Z,1.27
2022-11-21T12:21:11.251Z,1.33
2022-11-21T12:23:53.547Z,1.30
2022-11-21T12:26:36.107Z,1.17
2022-11-21T12:29:32.560Z,1.55
2022-11-21T12:32:31.911Z,1.00
2022-11-21T12:35:39.995Z,1.42
2022-11-21T12:38:29.093Z,1.20
2022-11-21T12:41:51.440Z,0.98
2022-11-21T12:44:32.317Z,1.25
2022-11-21T12:47:18.670Z,1.27
2022-11-21T12:50:39.364Z,1.25
2022-11-21T12:53:54.864Z,1.30
2022-11-21T12:56:58.751Z,1.20
2022-11-21T12:59:27.443Z,1.25
2022-11-21T13:02:04.526Z,1.23
2022-11-21T13:04:39.752Z,1.40
2022-11-21T13:07:08.578Z,1.30
2022-11-21T13:09:48.592Z,1.35
2022-11-21T13:13:15.015Z,1.33
2022-11-21T13:16:07.600Z,1.70
2022-11-21T13:18:55.319Z,1.40
2022-11-21T13:21:48.170Z,1.70
2022-11-21T13:24:44.861Z,1.35
2022-11-21T13:27:30.957Z,4.95
2022-11-21T13:30:07.944Z,5.40
2022-11-21T13:32:42.915Z,5.72
2022-11-21T13:35:19.954Z,5.38
2022-11-21T13:38:03.562Z,4.95
2022-11-21T13:41:05.250Z,3.30
2022-11-21T13:43:35.254Z,2.10
2022-11-21T13:46:03.891Z,1.92
2022-11-21T13:48:39.117Z,2.60
2022-11-21T13:51:47.563Z,2.22
2022-11-21T13:54:56.724Z,2.47
2022-11-21T13:57:57.278Z,2.00
2022-11-21T14:00:58.805Z,2.47
2022-11-21T14:03:41.980Z,2.08
2022-11-21T14:06:36.626Z,1.60
2022-11-21T14:09:26.550Z,1.80
2022-11-21T14:12:03.933Z,2.22
2022-11-21T14:14:51.157Z,2.00
2022-11-21T14:17:50.828Z,3.28
2022-11-21T14:20:25.557Z,4.38
2022-11-21T14:23:04.163Z,2.92
2022-11-21T14:25:57.729Z,2.22
2022-11-21T14:28:28.754Z,2.00
2022-11-21T14:31:08.282Z,2.45
2022-11-21T14:33:38.615Z,2.58
2022-11-21T14:36:22.617Z,2.33
2022-11-21T14:39:35.304Z,2.60
2022-11-21T14:41:52.743Z,2.67
2022-11-21T14:44:22.747Z,2.28
2022-11-21T14:47:02.545Z,2.08
2022-11-21T14:49:30.575Z,1.70
2022-11-21T14:52:11.979Z,2.45
2022-11-21T14:55:22.372Z,3.40
2022-11-21T14:57:42.558Z,3.83
2022-11-21T15:00:51.434Z,5.20
2022-11-21T15:03:23.868Z,3.17
2022-11-21T15:06:07.525Z,2.90
2022-11-21T15:11:52.390Z,3.10
2022-11-21T15:14:27.422Z,5.93
2022-11-21T15:16:57.835Z,2.80
2022-11-21T15:19:29.666Z,3.47
2022-11-21T15:22:04.428Z,5.97
2022-11-21T15:24:44.504Z,4.85
2022-11-21T15:27:33.978Z,2.58
2022-11-21T15:30:10.149Z,2.00
2022-11-21T15:33:15.863Z,2.50
2022-11-21T15:35:53.676Z,2.20
2022-11-21T15:38:57.097Z,2.00
2022-11-21T15:41:29.790Z,2.10
2022-11-21T15:44:22.223Z,2.33
2022-11-21T15:46:53.677Z,1.92
2022-11-21T15:52:12.201Z,1.70
2022-11-21T15:54:40.511Z,1.95
2022-11-21T15:57:12.200Z,2.05
2022-11-21T15:59:40.385Z,2.10
2022-11-21T16:02:14.439Z,1.92
2022-11-21T16:04:42.581Z,2.00
2022-11-21T16:07:10.784Z,2.42
2022-11-21T16:09:41.217Z,3.65
2022-11-21T16:12:09.639Z,3.80
2022-11-21T16:14:37.699Z,2.88
2022-11-21T16:17:05.478Z,2.33
2022-11-21T16:19:33.572Z,3.95
2022-11-21T16:22:02.993Z,3.03
2022-11-21T16:24:31.015Z,2.92
2022-11-21T16:26:58.922Z,2.22
2022-11-21T16:29:27.148Z,2.50
2022-11-21T16:31:56.063Z,2.08
2022-11-21T16:34:24.008Z,2.05
2022-11-21T16:36:52.008Z,2.20
2022-11-21T16:39:19.871Z,1.85
2022-11-21T16:41:49.438Z,1.70
2022-11-21T16:44:18.197Z,1.70
2022-11-21T16:46:49.185Z,1.80
2022-11-21T16:49:17.250Z,1.95
2022-11-21T16:51:46.276Z,1.88
2022-11-21T16:54:14.781Z,1.60
2022-11-21T16:56:42.733Z,2.05
2022-11-21T16:59:11.501Z,2.00
2022-11-21T17:01:40.060Z,1.83
2022-11-21T17:04:15.679Z,2.00
2022-11-21T17:06:49.331Z,1.60
2022-11-21T17:09:17.573Z,2.03
2022-11-21T17:11:45.593Z,3.20
2022-11-21T17:14:14.311Z,1.90
2022-11-21T17:16:43.245Z,2.13
2022-11-21T17:19:12.450Z,1.60
2022-11-21T17:21:42.641Z,8.02
2022-11-21T17:24:13.909Z,17.08
2022-11-21T17:26:41.842Z,7.82
2022-11-21T17:29:10.417Z,4.47
2022-11-21T17:31:38.995Z,3.67
2022-11-21T17:34:07.385Z,2.03
2022-11-21T17:36:36.870Z,1.83
2022-11-21T17:39:05.204Z,2.83
2022-11-21T17:41:33.233Z,2.67
2022-11-21T17:44:01.766Z,1.73
2022-11-21T17:46:29.818Z,1.70
2022-11-21T17:48:59.741Z,2.22
2022-11-21T17:51:34.848Z,1.95
2022-11-21T17:54:03.281Z,2.20
2022-11-21T17:56:37.014Z,2.17
2022-11-21T17:59:07.640Z,2.13
2022-11-21T18:01:36.004Z,2.40
2022-11-21T18:04:13.399Z,2.10
2022-11-21T18:06:43.245Z,2.60
2022-11-21T18:09:13.071Z,3.10
2022-11-21T18:11:41.722Z,2.85
2022-11-21T18:14:13.014Z,2.65
2022-11-21T18:16:46.220Z,2.73
2022-11-21T18:19:17.562Z,2.42
2022-11-21T18:21:46.116Z,2.70
2022-11-21T18:24:14.011Z,2.40
2022-11-21T18:26:41.926Z,2.38
2022-11-21T18:29:35.175Z,2.72
2022-11-21T18:31:58.947Z,2.28
2022-11-21T18:34:27.364Z,2.88
2022-11-21T18:36:56.296Z,5.47
2022-11-21T18:39:25.707Z,7.93
2022-11-21T18:41:58.053Z,7.40
2022-11-21T18:44:30.124Z,4.80
2022-11-21T18:46:59.911Z,3.50
2022-11-21T18:49:32.824Z,5.65
2022-11-21T18:52:09.889Z,5.25
2022-11-21T18:54:39.004Z,6.07
2022-11-21T18:57:07.964Z,5.38
2022-11-21T18:59:37.777Z,4.30
2022-11-21T19:02:07.484Z,3.20
2022-11-21T19:04:36.407Z,3.00
2022-11-21T19:07:08.614Z,3.05
2022-11-21T19:09:38.264Z,3.35
2022-11-21T19:12:07.228Z,3.65
2022-11-21T19:14:36.313Z,4.45
2022-11-21T19:17:05.035Z,3.78
2022-11-21T19:19:35.351Z,12.73
2022-11-21T19:22:05.752Z,4.60
2022-11-21T19:24:34.398Z,3.40
2022-11-21T19:27:03.709Z,2.70
2022-11-21T19:29:34.109Z,2.38
2022-11-21T19:32:03.143Z,2.10
2022-11-21T19:34:31.523Z,2.17
2022-11-21T19:36:59.864Z,2.53
2022-11-21T19:39:29.543Z,2.00
2022-11-21T19:41:57.997Z,2.08
2022-11-21T19:44:28.309Z,2.03
2022-11-21T19:46:56.815Z,2.10
2022-11-21T19:49:25.196Z,1.70
2022-11-21T19:51:53.007Z,1.80
2022-11-21T19:54:21.944Z,2.08
2022-11-21T19:56:51.094Z,1.88
2022-11-21T19:59:20.270Z,2.00
2022-11-21T20:01:52.647Z,2.42
2022-11-21T20:04:21.899Z,2.50
2022-11-21T20:06:52.973Z,2.13
2022-11-21T20:09:22.151Z,2.30
2022-11-21T20:11:52.820Z,1.98
2022-11-21T20:14:23.036Z,2.30
2022-11-21T20:16:53.955Z,2.40
2022-11-21T20:19:25.268Z,4.15
2022-11-21T20:21:54.091Z,4.70
2022-11-21T20:24:22.595Z,4.88
2022-11-21T20:26:50.969Z,4.05
2022-11-21T20:29:20.145Z,2.65
2022-11-21T20:31:50.021Z,2.55
2022-11-21T20:34:18.443Z,2.47
2022-11-21T20:36:48.037Z,2.60
2022-11-21T20:39:18.779Z,2.10
2022-11-21T20:41:48.362Z,2.85
2022-11-21T20:45:20.292Z,2.55
2022-11-21T20:47:12.229Z,2.60
2022-11-21T20:49:41.232Z,2.15
2022-11-21T20:54:58.109Z,2.40
2022-11-21T20:57:27.881Z,2.60
2022-11-21T20:59:56.584Z,3.58
2022-11-21T21:02:25.137Z,3.20
2022-11-21T21:04:53.728Z,2.67
2022-11-21T21:07:22.327Z,2.67
2022-11-21T21:09:50.613Z,3.05
2022-11-21T21:12:20.220Z,3.90
2022-11-21T21:14:48.794Z,4.25
2022-11-21T21:17:17.028Z,3.38
2022-11-21T21:19:45.924Z,3.90
2022-11-21T21:22:15.840Z,3.80
2022-11-21T21:24:45.393Z,3.95
2022-11-21T21:27:13.586Z,4.80
2022-11-21T21:29:42.400Z,4.13
2022-11-21T21:32:12.834Z,3.80
2022-11-21T21:34:41.222Z,3.75
2022-11-21T21:37:09.425Z,3.70
2022-11-21T21:39:38.866Z,3.67
2022-11-21T21:42:06.701Z,3.97
2022-11-21T21:44:35.050Z,3.70
2022-11-21T21:47:05.381Z,3.03
2022-11-21T21:49:33.612Z,2.65
2022-11-21T21:52:01.763Z,2.45
2022-11-21T21:54:30.860Z,2.30
2022-11-21T21:56:59.307Z,2.33
2022-11-21T21:59:27.764Z,2.80
2022-11-21T22:01:55.798Z,2.70
2022-11-21T22:04:24.223Z,2.47
2022-11-21T22:06:53.525Z,2.72
2022-11-21T22:09:22.214Z,2.63
2022-11-21T22:11:49.989Z,3.05
2022-11-21T22:14:17.958Z,2.97
2022-11-21T22:16:46.117Z,3.33
2022-11-21T22:19:15.708Z,3.05
2022-11-21T22:21:44.089Z,3.00
2022-11-21T22:24:30.865Z,2.70
2022-11-21T22:26:59.107Z,2.88
2022-11-21T22:29:27.574Z,2.95
2022-11-21T22:31:55.953Z,2.60
2022-11-21T22:34:24.112Z,2.20
2022-11-21T22:36:52.817Z,2.40
2022-11-21T22:39:22.367Z,2.20
2022-11-21T22:41:50.651Z,1.92
2022-11-21T22:44:19.295Z,2.33
2022-11-21T22:46:47.337Z,3.50
2022-11-21T22:49:15.736Z,3.42
2022-11-21T22:51:44.526Z,3.95
2022-11-21T22:54:16.809Z,3.97
2022-11-21T22:56:45.611Z,3.67
2022-11-21T22:59:14.439Z,3.40
2022-11-21T23:01:42.467Z,3.58
2022-11-21T23:04:14.553Z,5.22
2022-11-21T23:06:45.407Z,4.18
2022-11-21T23:09:13.653Z,3.65
2022-11-21T23:11:41.452Z,3.70
2022-11-21T23:14:09.414Z,4.00
2022-11-21T23:16:37.346Z,3.50
2022-11-21T23:19:05.741Z,3.13
2022-11-21T23:21:34.064Z,2.67
2022-11-21T23:24:01.981Z,2.85
2022-11-21T23:26:30.216Z,3.33
2022-11-21T23:29:02.350Z,3.50
2022-11-21T23:31:33.879Z,3.60
2022-11-21T23:34:01.699Z,4.25
2022-11-21T23:36:29.606Z,3.95
2022-11-21T23:38:57.733Z,3.85
2022-11-21T23:41:26.018Z,3.70
2022-11-21T23:43:53.873Z,4.10
2022-11-21T23:46:22.112Z,3.75
2022-11-21T23:48:49.953Z,4.05
2022-11-21T23:51:18.180Z,3.55
2022-11-21T23:53:46.579Z,3.88
2022-11-21T23:56:14.534Z,3.90
2022-11-21T23:58:42.297Z,3.30
